Time;durP1;ratioP1;P1;durP2;ratioP2;P2;SDS_P1;SDS_P2;PMS_P1;PMS_P2;Temp;Humidity;BMP_temperature;BMP_pressure;BME280_temperature;BME280_humidity;BME280_pressure;Samples;Min_cycle;Max_cycle;Signal;HPM_P1;HPM_P2
2022/01/27 00:06:19;;;;;;;25.23;8.33;;;0.30;99.90;;;;;;5116134;28;20373;-78
2022/01/27 00:11:12;;;;;;;24.60;8.10;;;0.30;99.90;;;;;;5115947;28;20027;-77
2022/01/27 00:13:54;;;;;;;23.20;8.50;;;0.20;99.90;;;;;;5096805;28;20031;-77
2022/01/27 00:16:23;;;;;;;26.00;8.77;;;0.20;99.90;;;;;;5097295;28;20023;-78
2022/01/27 00:18:51;;;;;;;21.20;8.17;;;0.20;99.90;;;;;;5097579;28;20043;-78
2022/01/27 00:21:26;;;;;;;25.70;8.80;;;0.20;99.90;;;;;;5115144;28;20068;-79
2022/01/27 00:23:53;;;;;;;22.80;8.07;;;0.20;99.90;;;;;;5097552;28;20024;-77
2022/01/27 00:26:19;;;;;;;24.73;8.60;;;0.20;99.90;;;;;;5096608;28;20044;-78
2022/01/27 00:28:48;;;;;;;26.53;8.97;;;0.20;99.90;;;;;;5096700;28;20023;-78
2022/01/27 00:31:16;;;;;;;25.97;8.97;;;0.20;99.90;;;;;;5097418;28;20027;-77
2022/01/27 00:33:43;;;;;;;27.33;8.53;;;0.20;99.90;;;;;;5096966;28;20036;-77
2022/01/27 00:36:09;;;;;;;27.63;8.83;;;0.20;99.90;;;;;;5115222;28;20073;-77
2022/01/27 00:38:35;;;;;;;27.20;8.77;;;0.20;99.90;;;;;;5096448;28;20448;-77
2022/01/27 00:41:01;;;;;;;26.37;8.63;;;0.20;99.90;;;;;;5114502;28;20487;-78
2022/01/27 00:43:27;;;;;;;28.07;8.90;;;0.20;99.90;;;;;;5097009;28;20404;-79
2022/01/27 00:45:52;;;;;;;24.53;8.50;;;0.20;99.90;;;;;;5096449;28;20114;-78
2022/01/27 00:48:18;;;;;;;23.33;8.17;;;0.20;99.90;;;;;;5096114;28;20028;-79
2022/01/27 00:50:55;;;;;;;27.73;9.27;;;0.10;99.90;;;;;;5096764;28;20059;-78
2022/01/27 00:55:53;;;;;;;25.17;8.52;;;0.10;99.90;;;;;;5114961;28;20016;-79
2022/01/27 01:00:53;;;;;;;23.60;8.07;;;0.00;99.90;;;;;;5114980;28;20028;-79
2022/01/27 01:03:41;;;;;;;30.30;9.63;;;0.00;99.90;;;;;;5096314;28;20126;-79
2022/01/27 01:06:22;;;;;;;28.90;9.07;;;0.00;99.90;;;;;;5113234;27;20406;-79
2022/01/27 01:09:39;;;;;;;28.17;8.90;;;0.00;99.90;;;;;;5117315;27;20034;-79
2022/01/27 01:14:49;;;;;;;31.23;9.27;;;0.00;99.90;;;;;;5135529;27;20126;-80
2022/01/27 01:17:01;;;;;;;29.30;9.13;;;0.00;99.90;;;;;;5124617;27;20118;-79
2022/01/27 01:19:58;;;;;;;27.52;8.82;;;0.00;99.90;;;;;;5116288;27;20034;-80
2022/01/27 01:33:09;;;;;;;27.67;9.60;;;0.10;99.90;;;;;;5134936;27;20069;-79
2022/01/27 01:35:48;;;;;;;24.63;8.83;;;0.10;99.90;;;;;;5116366;27;20024;-80
2022/01/27 01:38:20;;;;;;;27.03;9.63;;;0.10;99.90;;;;;;5116454;27;20023;-79
2022/01/27 01:40:51;;;;;;;29.25;9.85;;;0.10;99.90;;;;;;5116948;27;20023;-79
2022/01/27 01:43:17;;;;;;;24.30;9.40;;;0.10;99.90;;;;;;5134669;27;20039;-79
2022/01/27 01:45:44;;;;;;;24.17;8.97;;;0.00;99.90;;;;;;5116166;27;20115;-79
2022/01/27 01:48:10;;;;;;;27.57;9.30;;;0.00;99.90;;;;;;5116494;27;20391;-80
2022/01/27 01:50:36;;;;;;;24.43;9.03;;;-0.10;99.90;;;;;;5134264;27;20103;-79
2022/01/27 01:53:04;;;;;;;25.00;8.77;;;0.00;99.90;;;;;;5115992;27;20030;-79
2022/01/27 01:55:31;;;;;;;29.93;10.57;;;0.00;99.90;;;;;;5115762;27;20027;-79
2022/01/27 01:57:57;;;;;;;29.23;9.40;;;-0.10;99.90;;;;;;5116710;27;20422;-79
2022/01/27 02:00:24;;;;;;;28.07;9.30;;;-0.10;99.90;;;;;;5134228;27;20023;-79
2022/01/27 02:02:49;;;;;;;26.67;8.83;;;-0.10;99.90;;;;;;5116762;27;20047;-80
2022/01/27 02:05:18;;;;;;;26.73;9.90;;;0.00;99.90;;;;;;5116166;27;20115;-79
2022/01/27 02:08:33;;;;;;;28.83;9.07;;;-0.10;99.90;;;;;;5116502;27;20164;-80
2022/01/27 02:19:12;;;;;;;26.47;8.87;;;-0.10;99.90;;;;;;5134403;28;20048;-79
2022/01/27 02:21:56;;;;;;;31.87;10.73;;;-0.10;99.90;;;;;;5115523;28;20030;-79
2022/01/27 02:24:24;;;;;;;29.47;8.97;;;-0.10;99.90;;;;;;5115897;28;20080;-80
2022/01/27 02:26:50;;;;;;;27.87;9.20;;;-0.10;99.90;;;;;;5133978;28;20126;-79
2022/01/27 02:29:17;;;;;;;29.43;10.03;;;-0.10;99.90;;;;;;5116255;28;20078;-79
2022/01/27 02:31:45;;;;;;;26.53;9.93;;;-0.10;99.90;;;;;;5116677;27;20024;-79
2022/01/27 02:34:11;;;;;;;26.73;8.90;;;-0.10;99.90;;;;;;5120250;27;20479;-78
2022/01/27 02:36:37;;;;;;;29.20;9.80;;;-0.20;99.90;;;;;;5119722;27;20058;-79
2022/01/27 02:39:06;;;;;;;28.33;9.23;;;-0.20;99.90;;;;;;5138463;27;20023;-79
2022/01/27 02:41:45;;;;;;;28.37;10.07;;;-0.30;99.90;;;;;;5119881;27;20023;-79
2022/01/27 02:44:19;;;;;;;25.87;9.00;;;-0.30;99.90;;;;;;5138249;27;20034;-79
2022/01/27 02:46:45;;;;;;;30.77;9.97;;;-0.20;99.90;;;;;;5119367;27;20116;-79
2022/01/27 02:49:11;;;;;;;27.87;10.00;;;-0.20;99.90;;;;;;5120090;27;20027;-79
2022/01/27 02:51:37;;;;;;;31.83;9.67;;;-0.30;99.90;;;;;;5119558;27;20431;-79
2022/01/27 02:54:06;;;;;;;28.50;9.80;;;-0.30;99.90;;;;;;5119743;27;20027;-79
2022/01/27 02:56:33;;;;;;;27.77;10.30;;;-0.20;99.90;;;;;;5119214;27;20464;-79
2022/01/27 02:58:59;;;;;;;34.60;9.47;;;-0.20;99.90;;;;;;5119706;27;20460;-78
2022/01/27 03:01:24;;;;;;;26.37;9.80;;;-0.20;99.90;;;;;;5119267;27;20076;-79
2022/01/27 03:03:51;;;;;;;22.83;9.27;;;-0.30;99.90;;;;;;5118973;27;20114;-78
2022/01/27 03:06:16;;;;;;;36.17;9.70;;;-0.30;99.90;;;;;;5119824;27;20416;-78
2022/01/27 03:08:42;;;;;;;29.30;9.03;;;-0.30;99.90;;;;;;5137308;27;20026;-79
2022/01/27 03:11:17;;;;;;;29.53;9.73;;;-0.30;99.90;;;;;;5137959;27;20091;-79
2022/01/27 03:13:43;;;;;;;28.97;9.17;;;-0.30;99.90;;;;;;5119134;27;20053;-78
2022/01/27 03:16:09;;;;;;;32.10;9.70;;;-0.30;99.90;;;;;;5119244;27;20539;-78
2022/01/27 03:18:35;;;;;;;26.03;8.17;;;-0.30;99.90;;;;;;5137099;27;20055;-78
2022/01/27 03:21:02;;;;;;;29.00;9.80;;;-0.30;99.90;;;;;;5119247;27;20023;-76
2022/01/27 03:23:28;;;;;;;29.87;9.53;;;-0.30;99.90;;;;;;5118655;27;20035;-77
2022/01/27 03:25:54;;;;;;;31.93;10.13;;;-0.30;99.90;;;;;;5135918;27;20043;-79
2022/01/27 03:28:24;;;;;;;32.90;10.20;;;-0.30;99.90;;;;;;5118520;28;20487;-78
2022/01/27 03:30:49;;;;;;;26.63;9.97;;;-0.30;99.90;;;;;;5118378;28;20031;-79
2022/01/27 03:33:15;;;;;;;34.50;9.77;;;-0.30;99.90;;;;;;5118427;28;20027;-79
2022/01/27 03:35:41;;;;;;;30.67;9.40;;;-0.40;99.90;;;;;;5118126;28;20430;-79
2022/01/27 03:38:06;;;;;;;29.97;9.53;;;-0.30;99.90;;;;;;5118072;28;20072;-79
2022/01/27 03:40:32;;;;;;;30.50;9.30;;;-0.30;99.90;;;;;;5135749;28;20027;-79
2022/01/27 03:43:06;;;;;;;26.37;9.17;;;-0.30;99.90;;;;;;5117894;28;20033;-79
2022/01/27 03:45:32;;;;;;;26.50;9.13;;;-0.30;99.90;;;;;;5117775;28;20027;-80
2022/01/27 03:47:59;;;;;;;27.20;9.40;;;-0.30;99.90;;;;;;5118202;28;20031;-80
2022/01/27 03:50:25;;;;;;;27.77;10.00;;;-0.30;99.90;;;;;;5136191;28;20020;-80
2022/01/27 03:52:50;;;;;;;23.30;8.40;;;-0.30;99.90;;;;;;5117008;28;20048;-79
2022/01/27 03:55:16;;;;;;;31.30;9.80;;;-0.30;99.90;;;;;;5117856;28;20114;-79
2022/01/27 03:57:42;;;;;;;24.07;8.07;;;-0.30;99.90;;;;;;5117464;28;20065;-79
2022/01/27 04:00:09;;;;;;;22.47;7.77;;;-0.30;99.90;;;;;;5135982;28;20490;-79
2022/01/27 04:02:38;;;;;;;21.80;8.30;;;-0.30;99.90;;;;;;5117467;28;20024;-79
2022/01/27 04:05:04;;;;;;;24.67;8.30;;;-0.30;99.90;;;;;;5135651;28;20030;-77
2022/01/27 04:07:29;;;;;;;25.90;9.43;;;-0.30;99.90;;;;;;5116704;28;20163;-78
2022/01/27 04:09:55;;;;;;;34.90;9.40;;;-0.30;99.90;;;;;;5117181;28;20054;-77
2022/01/27 04:12:21;;;;;;;20.80;9.07;;;-0.40;99.90;;;;;;5135398;28;20429;-78
2022/01/27 04:14:46;;;;;;;25.40;8.60;;;-0.30;99.90;;;;;;5134446;28;20042;-78
2022/01/27 04:17:12;;;;;;;32.30;9.43;;;-0.30;99.90;;;;;;5117011;28;20054;-77
2022/01/27 04:19:37;;;;;;;27.90;9.43;;;-0.40;99.90;;;;;;5115895;28;20035;-78
2022/01/27 04:22:03;;;;;;;28.60;9.40;;;-0.30;99.90;;;;;;5134837;28;20031;-78
2022/01/27 04:24:30;;;;;;;26.10;9.13;;;-0.30;99.90;;;;;;5116831;28;20084;-80
2022/01/27 04:27:04;;;;;;;23.10;7.97;;;-0.30;99.90;;;;;;5079708;27;1073879;-78
2022/01/27 04:29:36;;;;;;;24.57;8.50;;;-0.30;99.90;;;;;;5136064;27;20023;-79
2022/01/27 04:32:06;;;;;;;;;;;-0.30;99.90;;;;;;5136763;27;20034;-78
2022/01/27 04:34:35;;;;;;;24.87;7.70;;;-0.30;99.90;;;;;;5117643;27;19953;-79
2022/01/27 04:37:00;;;;;;;26.10;8.67;;;-0.30;99.90;;;;;;5118226;27;20061;-78
2022/01/27 04:39:34;;;;;;;26.80;8.83;;;-0.30;99.90;;;;;;5117672;27;20051;-78
2022/01/27 04:42:13;;;;;;;26.07;9.10;;;-0.30;99.90;;;;;;5118184;27;20023;-78
2022/01/27 04:44:51;;;;;;;24.40;9.23;;;-0.30;99.90;;;;;;5117768;27;20031;-79
2022/01/27 04:47:28;;;;;;;27.40;8.73;;;-0.30;99.90;;;;;;5136152;27;20020;-78
2022/01/27 04:49:53;;;;;;;24.63;8.23;;;-0.40;99.90;;;;;;5135565;27;20027;-79
2022/01/27 04:52:19;;;;;;;25.87;8.97;;;-0.30;99.90;;;;;;5135406;27;20569;-78
2022/01/27 04:57:23;;;;;;;26.70;9.87;;;-0.30;99.90;;;;;;5136112;27;20027;-78
2022/01/27 04:59:48;;;;;;;27.90;9.40;;;-0.30;99.90;;;;;;5117062;27;20023;-79
2022/01/27 05:02:26;;;;;;;25.07;9.47;;;-0.30;99.90;;;;;;5117532;27;20156;-78
2022/01/27 05:04:52;;;;;;;28.13;9.40;;;-0.30;99.90;;;;;;5135428;27;20034;-79
2022/01/27 05:07:18;;;;;;;30.63;10.07;;;-0.40;99.90;;;;;;5135859;27;20438;-78
2022/01/27 05:09:52;;;;;;;27.33;8.57;;;-0.40;99.90;;;;;;5116947;27;20101;-78
2022/01/27 05:12:30;;;;;;;24.40;9.60;;;-0.30;99.90;;;;;;5135660;27;20019;-79
2022/01/27 05:14:58;;;;;;;26.63;9.10;;;-0.40;99.90;;;;;;5117265;27;20027;-78
2022/01/27 05:17:24;;;;;;;26.60;9.27;;;-0.30;99.90;;;;;;5117238;27;20059;-78
2022/01/27 05:19:51;;;;;;;26.07;9.00;;;-0.30;99.90;;;;;;5116636;27;20062;-78
2022/01/27 05:22:16;;;;;;;25.40;8.70;;;-0.30;99.90;;;;;;5117147;27;20059;-78
2022/01/27 05:24:42;;;;;;;29.97;9.67;;;-0.40;99.90;;;;;;5134604;27;20026;-79
2022/01/27 05:27:08;;;;;;;25.23;8.97;;;-0.40;99.90;;;;;;5135392;27;20038;-78
2022/01/27 05:29:34;;;;;;;28.17;9.17;;;-0.40;99.90;;;;;;5134406;27;20472;-78
2022/01/27 05:31:59;;;;;;;34.17;11.10;;;-0.50;99.90;;;;;;5117239;27;20062;-79
2022/01/27 05:34:25;;;;;;;30.67;10.03;;;-0.50;99.90;;;;;;5134967;27;20031;-78
2022/01/27 05:36:50;;;;;;;28.00;9.00;;;-0.40;99.90;;;;;;5134444;27;20025;-78
2022/01/27 05:39:16;;;;;;;26.57;9.07;;;-0.40;99.90;;;;;;5116399;27;20023;-78
2022/01/27 05:41:45;;;;;;;33.63;10.47;;;-0.40;99.90;;;;;;5115891;27;20020;-78
2022/01/27 05:44:11;;;;;;;28.73;9.60;;;-0.40;99.90;;;;;;5116330;27;20027;-78
2022/01/27 05:46:37;;;;;;;33.13;10.80;;;-0.40;99.90;;;;;;5116222;27;20080;-76
2022/01/27 05:49:03;;;;;;;34.77;10.57;;;-0.50;99.90;;;;;;5116817;27;20036;-80
2022/01/27 05:51:28;;;;;;;29.03;10.47;;;-0.60;99.90;;;;;;5141038;27;20096;-79
2022/01/27 05:53:54;;;;;;;29.70;10.53;;;-0.60;99.90;;;;;;5135985;27;20406;-79
2022/01/27 05:56:20;;;;;;;32.93;10.53;;;-0.50;99.90;;;;;;5134318;27;20030;-79
2022/01/27 05:58:45;;;;;;;31.43;10.37;;;-0.50;99.90;;;;;;5134529;27;20023;-79
2022/01/27 06:01:11;;;;;;;36.80;11.87;;;-0.50;99.90;;;;;;5116742;27;20114;-78
2022/01/27 06:03:37;;;;;;;32.57;11.33;;;-0.50;99.90;;;;;;5116107;27;20038;-78
2022/01/27 06:06:03;;;;;;;31.83;10.37;;;-0.50;99.90;;;;;;5134592;27;20023;-78
2022/01/27 06:08:30;;;;;;;31.77;10.23;;;-0.50;99.90;;;;;;5134133;27;20027;-78
2022/01/27 06:10:56;;;;;;;34.67;10.33;;;-0.50;99.90;;;;;;5115815;27;20061;-78
2022/01/27 06:13:23;;;;;;;38.77;12.40;;;-0.50;99.90;;;;;;5116453;28;20027;-78
2022/01/27 06:15:48;;;;;;;35.10;12.90;;;-0.50;99.90;;;;;;5115781;28;20062;-78
2022/01/27 06:18:14;;;;;;;36.13;11.43;;;-0.50;99.90;;;;;;5116426;28;20027;-79
2022/01/27 06:20:42;;;;;;;34.27;11.27;;;-0.50;99.90;;;;;;5116027;28;20076;-78
2022/01/27 06:23:08;;;;;;;40.90;12.13;;;-0.50;99.90;;;;;;5134563;28;20034;-77
2022/01/27 06:25:34;;;;;;;39.43;12.00;;;-0.50;99.90;;;;;;5134431;28;20047;-77
2022/01/27 06:28:00;;;;;;;33.07;10.77;;;-0.50;99.90;;;;;;5115564;28;20027;-77
2022/01/27 06:30:26;;;;;;;38.80;12.23;;;-0.50;99.90;;;;;;5134401;28;20027;-78
2022/01/27 06:32:52;;;;;;;33.60;10.80;;;-0.50;99.90;;;;;;5133977;28;20102;-78
2022/01/27 06:35:17;;;;;;;38.20;11.13;;;-0.60;99.90;;;;;;5116163;28;20061;-78
2022/01/27 06:37:45;;;;;;;33.83;11.10;;;-0.60;99.90;;;;;;5116095;28;20084;-79
2022/01/27 06:40:12;;;;;;;33.43;10.13;;;-0.60;99.90;;;;;;5116194;28;20072;-78
2022/01/27 06:42:38;;;;;;;33.70;10.80;;;-0.60;99.90;;;;;;5115751;28;20027;-78
2022/01/27 06:45:05;;;;;;;32.27;11.17;;;-0.60;99.90;;;;;;5116263;28;20038;-78
2022/01/27 06:47:31;;;;;;;30.03;9.77;;;-0.60;99.90;;;;;;5115330;28;20043;-78
2022/01/27 06:49:56;;;;;;;34.17;10.30;;;-0.60;99.90;;;;;;5115550;28;20215;-78
2022/01/27 06:52:25;;;;;;;29.13;9.90;;;-0.60;99.90;;;;;;5116119;28;20027;-78
2022/01/27 06:54:52;;;;;;;30.37;10.00;;;-0.50;99.90;;;;;;5115589;28;20035;-78
2022/01/27 06:57:18;;;;;;;30.10;9.33;;;-0.60;99.90;;;;;;5115980;28;20209;-78
2022/01/27 06:59:43;;;;;;;27.13;9.43;;;-0.50;99.90;;;;;;5133689;28;20416;-78
2022/01/27 07:02:09;;;;;;;32.37;9.23;;;-0.50;99.90;;;;;;5134157;28;20027;-78
2022/01/27 07:04:35;;;;;;;28.93;9.10;;;-0.40;99.90;;;;;;5115893;28;20035;-78
2022/01/27 07:07:01;;;;;;;27.87;8.33;;;-0.40;99.90;;;;;;5115654;28;20026;-78
2022/01/27 07:09:26;;;;;;;24.53;8.33;;;-0.50;99.90;;;;;;5116164;28;20023;-78
2022/01/27 07:11:52;;;;;;;24.60;8.67;;;-0.50;99.90;;;;;;5133500;28;20027;-78
2022/01/27 07:14:18;;;;;;;26.33;8.23;;;-0.50;99.90;;;;;;5116142;28;20039;-78
2022/01/27 07:16:44;;;;;;;22.73;7.67;;;-0.40;99.90;;;;;;5133571;27;20372;-78
2022/01/27 07:19:10;;;;;;;21.87;7.80;;;-0.40;99.90;;;;;;5119086;27;20027;-77
2022/01/27 07:21:36;;;;;;;20.23;7.03;;;-0.40;99.90;;;;;;5119509;27;20371;-78
2022/01/27 07:24:02;;;;;;;18.43;7.63;;;-0.40;99.90;;;;;;5137232;27;20027;-77
2022/01/27 07:26:27;;;;;;;18.33;6.67;;;-0.30;99.90;;;;;;5115970;28;20047;-78
2022/01/27 07:28:54;;;;;;;22.03;7.13;;;-0.40;99.90;;;;;;5115285;28;20429;-78
2022/01/27 07:31:20;;;;;;;19.50;6.23;;;-0.40;99.90;;;;;;5115523;28;20024;-78
2022/01/27 07:33:48;;;;;;;17.07;6.50;;;-0.40;99.90;;;;;;5115283;28;20038;-78
2022/01/27 07:36:15;;;;;;;21.40;5.67;;;-0.40;99.90;;;;;;5116193;28;20080;-78
2022/01/27 07:38:42;;;;;;;18.50;6.63;;;-0.40;99.90;;;;;;5115734;28;20063;-79
2022/01/27 07:41:07;;;;;;;18.83;6.07;;;-0.40;99.90;;;;;;5115912;28;20487;-78
2022/01/27 07:43:33;;;;;;;19.63;6.27;;;-0.40;99.90;;;;;;5116551;28;20028;-78
2022/01/27 07:46:00;;;;;;;17.50;6.33;;;-0.30;99.90;;;;;;5115097;28;20097;-79
2022/01/27 07:48:26;;;;;;;16.17;5.47;;;-0.30;99.90;;;;;;5116092;28;20032;-79
2022/01/27 07:50:52;;;;;;;20.73;5.83;;;-0.30;99.90;;;;;;5115633;28;20027;-79
2022/01/27 07:53:18;;;;;;;16.20;5.53;;;-0.30;99.90;;;;;;5116409;28;20464;-79
2022/01/27 07:55:43;;;;;;;15.77;5.17;;;-0.30;99.90;;;;;;5116196;28;20031;-79
2022/01/27 07:58:09;;;;;;;12.90;4.70;;;-0.20;99.90;;;;;;5115201;28;20031;-78
2022/01/27 08:00:36;;;;;;;13.77;5.30;;;-0.30;99.90;;;;;;5114629;28;20468;-78
2022/01/27 08:03:01;;;;;;;13.03;5.30;;;-0.20;99.90;;;;;;5114684;28;20499;-79
2022/01/27 08:05:27;;;;;;;11.43;4.67;;;-0.20;99.90;;;;;;5115299;28;20024;-79
2022/01/27 08:07:54;;;;;;;12.33;4.63;;;-0.20;99.90;;;;;;5114827;28;20484;-79
2022/01/27 08:10:19;;;;;;;16.83;5.20;;;-0.10;99.90;;;;;;5115298;28;20031;-79
2022/01/27 08:12:45;;;;;;;17.70;5.30;;;-0.20;99.90;;;;;;5114663;28;20023;-79
2022/01/27 08:15:13;;;;;;;15.27;4.87;;;-0.20;99.90;;;;;;5115678;27;20039;-79
2022/01/27 08:17:40;;;;;;;13.43;5.13;;;-0.20;99.90;;;;;;5114827;28;20042;-79
2022/01/27 08:20:06;;;;;;;15.13;5.43;;;-0.10;99.90;;;;;;5115690;28;20035;-78
2022/01/27 08:22:35;;;;;;;14.80;5.13;;;-0.10;99.90;;;;;;5115969;27;20069;-79
2022/01/27 08:25:01;;;;;;;19.00;5.53;;;-0.10;99.90;;;;;;5118152;27;21155;-79
2022/01/27 08:27:30;;;;;;;13.57;5.10;;;-0.10;99.90;;;;;;5136222;27;20027;-78
2022/01/27 08:30:01;;;;;;;16.17;6.17;;;-0.10;99.90;;;;;;5116240;27;20019;-78
2022/01/27 08:32:47;;;;;;;13.63;5.43;;;-0.10;99.90;;;;;;5118428;27;20029;-78
2022/01/27 08:35:15;;;;;;;20.13;6.00;;;-0.10;99.90;;;;;;5118380;27;20114;-78
2022/01/27 08:37:40;;;;;;;16.87;6.27;;;-0.10;99.90;;;;;;5135997;27;20064;-78
2022/01/27 08:40:08;;;;;;;18.10;6.03;;;-0.20;99.90;;;;;;5117361;27;20024;-78
2022/01/27 08:42:34;;;;;;;18.50;6.63;;;-0.20;99.90;;;;;;5117736;27;20524;-78
2022/01/27 08:44:59;;;;;;;19.43;6.97;;;-0.20;99.90;;;;;;5117245;27;20062;-77
2022/01/27 08:47:26;;;;;;;20.30;7.63;;;-0.20;99.90;;;;;;5116998;27;20031;-77
2022/01/27 08:49:52;;;;;;;17.80;7.23;;;-0.20;99.90;;;;;;5117318;27;20183;-77
2022/01/27 08:52:18;;;;;;;17.23;6.97;;;-0.20;99.90;;;;;;5117496;27;20039;-77
2022/01/27 08:54:44;;;;;;;22.63;7.13;;;-0.10;99.90;;;;;;5117402;27;20492;-78
2022/01/27 08:57:11;;;;;;;22.47;7.53;;;-0.20;99.90;;;;;;5117751;27;20023;-78
2022/01/27 08:59:38;;;;;;;23.17;7.90;;;-0.10;99.90;;;;;;5118004;27;20023;-78
2022/01/27 09:02:04;;;;;;;24.17;7.67;;;-0.20;99.90;;;;;;5117142;27;20023;-79
2022/01/27 09:04:29;;;;;;;24.87;8.03;;;-0.10;99.90;;;;;;5117353;27;20084;-78
2022/01/27 09:06:55;;;;;;;25.37;8.47;;;-0.10;99.90;;;;;;5116604;27;20361;-78
2022/01/27 09:09:21;;;;;;;27.77;9.10;;;-0.10;99.90;;;;;;5135330;27;20054;-77
2022/01/27 09:11:46;;;;;;;28.10;9.83;;;-0.10;99.90;;;;;;5116676;27;20019;-78
2022/01/27 09:14:14;;;;;;;27.00;9.20;;;-0.20;99.90;;;;;;5117004;27;20524;-78
2022/01/27 09:16:40;;;;;;;26.43;8.70;;;-0.20;99.90;;;;;;5135527;27;20072;-78
2022/01/27 09:19:09;;;;;;;28.30;9.47;;;-0.10;99.90;;;;;;5135208;27;20312;-78
2022/01/27 09:21:45;;;;;;;35.00;11.00;;;-0.20;99.90;;;;;;5117360;27;20448;-78
2022/01/27 09:24:15;;;;;;;31.47;10.13;;;-0.20;99.90;;;;;;5117710;27;20034;-78
2022/01/27 09:29:15;;;;;;;34.50;11.27;;;-0.20;99.90;;;;;;5135320;27;20496;-78
2022/01/27 09:31:42;;;;;;;35.93;10.77;;;-0.20;99.90;;;;;;5117208;27;20023;-78
2022/01/27 09:34:07;;;;;;;32.43;11.00;;;-0.20;99.90;;;;;;5116385;27;20118;-78
2022/01/27 09:36:33;;;;;;;29.70;10.50;;;-0.20;99.90;;;;;;5135452;27;20050;-79
2022/01/27 09:38:59;;;;;;;38.17;11.43;;;-0.10;99.90;;;;;;5115730;27;20080;-80
2022/01/27 09:41:26;;;;;;;37.97;11.63;;;-0.10;99.90;;;;;;5134514;27;20027;-77
2022/01/27 09:43:53;;;;;;;36.97;11.70;;;-0.10;99.90;;;;;;5116313;27;20027;-78
2022/01/27 09:46:24;;;;;;;34.00;12.13;;;-0.10;99.90;;;;;;5116920;27;20034;-77
2022/01/27 09:48:52;;;;;;;40.33;13.00;;;-0.10;99.90;;;;;;5134028;27;20100;-79
2022/01/27 09:51:38;;;;;;;42.13;12.77;;;-0.10;99.90;;;;;;5116328;27;20267;-78
2022/01/27 09:54:05;;;;;;;36.83;12.03;;;-0.10;99.90;;;;;;5115976;27;20036;-78
2022/01/27 09:56:31;;;;;;;35.10;12.80;;;-0.10;99.90;;;;;;5134813;27;20064;-79
2022/01/27 09:58:57;;;;;;;38.80;11.97;;;-0.10;99.90;;;;;;5116169;27;20028;-78
2022/01/27 10:01:23;;;;;;;37.83;12.07;;;0.00;99.90;;;;;;5116367;27;20019;-77
2022/01/27 10:03:58;;;;;;;37.07;12.47;;;0.00;99.90;;;;;;5115613;27;20495;-81
2022/01/27 10:06:28;;;;;;;35.07;11.67;;;0.00;99.90;;;;;;5116976;27;20035;-79
2022/01/27 10:09:10;;;;;;;39.97;12.53;;;0.00;99.90;;;;;;5116210;28;20030;-80
2022/01/27 10:11:36;;;;;;;39.78;11.98;;;0.10;99.90;;;;;;5116280;28;20046;-78
2022/01/27 10:14:22;;;;;;;35.17;12.20;;;0.10;99.90;;;;;;5115891;28;20436;-78
2022/01/27 10:16:51;;;;;;;39.67;12.00;;;0.10;99.90;;;;;;5134766;27;20038;-79
2022/01/27 10:19:17;;;;;;;45.13;14.33;;;0.10;99.90;;;;;;5116296;28;20030;-79
2022/01/27 10:21:43;;;;;;;44.77;13.77;;;0.10;99.90;;;;;;5116583;28;20482;-77
2022/01/27 10:24:24;;;;;;;39.83;12.77;;;0.10;99.90;;;;;;5115831;28;20031;-79
2022/01/27 10:27:20;;;;;;;36.05;11.23;;;0.10;99.90;;;;;;5115786;28;20050;-78
2022/01/27 10:32:47;;;;;;;38.37;12.37;;;0.20;99.90;;;;;;5095353;28;20035;-78
2022/01/27 10:35:15;;;;;;;45.40;13.63;;;0.20;99.90;;;;;;5115532;28;20027;-78
2022/01/27 10:38:07;;;;;;;38.77;12.90;;;0.20;99.90;;;;;;5115982;28;20472;-78
2022/01/27 10:40:40;;;;;;;38.10;12.83;;;0.20;99.90;;;;;;5116162;28;20031;-78
2022/01/27 10:43:16;;;;;;;38.00;13.60;;;0.20;99.90;;;;;;5134080;28;20027;-77
2022/01/27 10:46:05;;;;;;;38.20;11.63;;;0.30;99.90;;;;;;5122983;28;20084;-77
2022/01/27 10:48:33;;;;;;;36.77;11.80;;;0.20;99.90;;;;;;5090641;28;20447;-78
2022/01/27 10:51:04;;;;;;;39.43;12.63;;;0.20;99.90;;;;;;5112220;28;20018;-76
2022/01/27 10:53:49;;;;;;;40.73;12.63;;;0.30;99.90;;;;;;5095853;28;20114;-76
2022/01/27 10:56:21;;;;;;;32.23;11.97;;;0.30;99.90;;;;;;5097689;28;20499;-78
2022/01/27 10:58:46;;;;;;;41.67;12.23;;;0.30;99.90;;;;;;5098587;28;20019;-78
2022/01/27 11:01:22;;;;;;;35.93;11.77;;;0.40;99.90;;;;;;5097822;28;20072;-78
2022/01/27 11:03:53;;;;;;;36.13;11.37;;;0.50;99.90;;;;;;5116246;28;20047;-77
2022/01/27 11:06:20;;;;;;;32.67;11.47;;;0.50;99.90;;;;;;5098479;28;20028;-77
2022/01/27 11:08:47;;;;;;;31.03;10.37;;;0.60;99.90;;;;;;5097739;28;20115;-76
2022/01/27 11:11:14;;;;;;;33.30;10.47;;;0.60;99.90;;;;;;5097265;28;20032;-76
2022/01/27 11:13:43;;;;;;;27.00;10.47;;;0.70;99.90;;;;;;5116367;28;20047;-78
2022/01/27 11:16:13;;;;;;;27.20;9.23;;;0.70;99.90;;;;;;5097758;28;20020;-80
2022/01/27 11:18:39;;;;;;;32.50;9.90;;;0.80;99.90;;;;;;5097738;28;20126;-78
2022/01/27 11:21:12;;;;;;;27.63;10.20;;;0.90;99.90;;;;;;5098099;28;20015;-77
2022/01/27 11:26:08;;;;;;;25.77;9.80;;;1.10;99.90;;;;;;5115694;28;20135;-77
2022/01/27 11:28:35;;;;;;;28.47;9.63;;;1.20;99.90;;;;;;5097945;28;20028;-77
2022/01/27 11:31:38;;;;;;;26.93;9.07;;;1.30;99.90;;;;;;5097932;28;20065;-78
2022/01/27 11:34:06;;;;;;;19.27;8.55;;;1.30;99.90;;;;;;5097451;28;20081;-78
2022/01/27 11:36:32;;;;;;;27.83;9.37;;;1.40;99.90;;;;;;5098190;28;20027;-78
2022/01/27 11:39:00;;;;;;;26.10;9.50;;;1.50;99.90;;;;;;5097747;28;20019;-78
2022/01/27 11:41:49;;;;;;;27.47;9.97;;;1.50;99.90;;;;;;5116709;28;20053;-80
2022/01/27 11:44:23;;;;;;;24.00;9.20;;;1.50;99.90;;;;;;5098084;28;20076;-80
2022/01/27 11:47:11;;;;;;;26.63;10.73;;;1.50;99.90;;;;;;5116435;28;20034;-79
2022/01/27 11:50:07;;;;;;;24.43;9.77;;;1.60;99.90;;;;;;5115439;28;20035;-77
2022/01/27 11:52:52;;;;;;;26.87;9.60;;;1.60;99.90;;;;;;5089171;28;20042;-78
2022/01/27 11:55:24;;;;;;;25.47;9.70;;;1.70;99.90;;;;;;5097537;28;20096;-78
2022/01/27 11:57:51;;;;;;;24.00;9.70;;;1.60;99.90;;;;;;5115344;28;20031;-78
2022/01/27 12:00:28;;;;;;;27.53;9.07;;;1.60;99.90;;;;;;5096568;28;20038;-78
2022/01/27 12:03:04;;;;;;;29.57;9.50;;;1.60;99.90;;;;;;5098712;28;20024;-77
2022/01/27 12:05:35;;;;;;;28.93;10.10;;;1.50;99.90;;;;;;5097503;28;20392;-78
2022/01/27 12:08:12;;;;;;;24.83;9.90;;;1.60;99.90;;;;;;5096781;28;20034;-77
2022/01/27 12:10:45;;;;;;;26.97;9.23;;;1.70;99.90;;;;;;5115009;28;20031;-78
2022/01/27 12:13:38;;;;;;;24.17;9.83;;;1.70;99.90;;;;;;5115259;28;20038;-77
2022/01/27 12:19:09;;;;;;;25.93;9.80;;;1.80;99.90;;;;;;5114797;28;20023;-77
2022/01/27 12:21:48;;;;;;;25.27;10.20;;;1.80;99.90;;;;;;5097296;28;20380;-77
2022/01/27 12:26:51;;;;;;;29.33;9.70;;;1.90;99.90;;;;;;5114366;28;20054;-77
2022/01/27 12:29:22;;;;;;;26.93;9.50;;;1.80;99.90;;;;;;5096235;28;20448;-77
2022/01/27 12:31:50;;;;;;;26.67;10.07;;;1.80;99.90;;;;;;5096358;28;20461;-77
2022/01/27 12:34:15;;;;;;;28.50;10.27;;;1.80;99.90;;;;;;5095997;28;20039;-77
2022/01/27 12:37:05;;;;;;;23.40;9.30;;;1.80;99.90;;;;;;5096334;28;20028;-77
2022/01/27 12:39:35;;;;;;;25.37;9.70;;;1.90;99.90;;;;;;5096826;28;20106;-77
2022/01/27 12:42:03;;;;;;;24.33;9.17;;;1.90;99.90;;;;;;5095919;28;20054;-78
2022/01/27 12:44:30;;;;;;;25.40;10.47;;;1.90;99.90;;;;;;5096209;28;20058;-77
2022/01/27 12:47:06;;;;;;;24.27;9.63;;;1.80;99.90;;;;;;5113702;28;20020;-77
2022/01/27 12:49:46;;;;;;;28.33;10.57;;;1.80;99.90;;;;;;5113883;28;20468;-76
2022/01/27 12:52:24;;;;;;;25.87;9.93;;;1.90;99.90;;;;;;5113353;28;20011;-76
2022/01/27 12:54:53;;;;;;;28.57;10.13;;;1.90;99.90;;;;;;5113742;28;20039;-76
2022/01/27 12:57:23;;;;;;;27.93;9.43;;;2.00;99.90;;;;;;5095514;28;20461;-76
2022/01/27 12:59:52;;;;;;;23.63;9.10;;;2.30;99.90;;;;;;5113987;28;20509;-77
2022/01/27 13:02:20;;;;;;;28.73;9.57;;;2.30;99.90;;;;;;5095527;28;20034;-76
2022/01/27 13:04:46;;;;;;;22.40;9.30;;;2.40;99.90;;;;;;5096383;28;20039;-77
2022/01/27 13:07:12;;;;;;;25.63;9.80;;;2.30;99.90;;;;;;5096023;28;20023;-78
2022/01/27 13:09:39;;;;;;;23.67;9.47;;;2.30;99.90;;;;;;5096170;28;20027;-78
2022/01/27 13:12:18;;;;;;;28.80;10.00;;;2.20;99.90;;;;;;5095530;28;20028;-78
2022/01/27 13:15:08;;;;;;;25.03;9.53;;;2.30;99.90;;;;;;5095755;28;20102;-77
2022/01/27 13:17:43;;;;;;;26.37;9.60;;;2.30;99.90;;;;;;5095873;28;20036;-78
2022/01/27 13:20:19;;;;;;;23.67;9.67;;;2.40;99.90;;;;;;5114061;28;20092;-78
2022/01/27 13:22:53;;;;;;;23.90;9.60;;;2.40;99.90;;;;;;5114504;28;20077;-78
2022/01/27 13:25:21;;;;;;;25.47;10.13;;;2.40;99.90;;;;;;5091409;28;20044;-75
2022/01/27 13:28:07;;;;;;;23.73;9.50;;;2.50;99.90;;;;;;5093118;28;20022;-76
2022/01/27 13:30:35;;;;;;;25.93;10.17;;;2.60;99.90;;;;;;5093614;28;20024;-77
2022/01/27 13:33:03;;;;;;;26.83;9.50;;;2.70;99.90;;;;;;5091625;28;20020;-77
2022/01/27 13:35:29;;;;;;;22.07;9.57;;;2.70;99.90;;;;;;5092364;28;20062;-77
2022/01/27 13:37:58;;;;;;;26.87;10.87;;;2.70;99.90;;;;;;5091862;28;20082;-77
2022/01/27 13:43:14;;;;;;;25.90;9.20;;;2.70;99.90;;;;;;5079379;28;20476;-77